sensor_id;sensor_type;location;lat;lon;timestamp;pressure;altitude;pressure_sealevel;temperature;humidity
20145;BME280;10233;50.814;6.590;2022-11-15T00:01:18;99595.25;;;12.53;100.00
20145;BME280;10233;50.814;6.590;2022-11-15T00:02:37;99596.06;;;12.53;100.00
20145;BME280;10233;50.814;6.590;2022-11-15T00:03:56;99597.59;;;12.49;100.00
20145;BME280;10233;50.814;6.590;2022-11-15T00:05:15;99598.16;;;12.51;100.00
20145;BME280;10233;50.814;6.590;2022-11-15T00:06:35;99602.00;;;12.55;100.00
20145;BME280;10233;50.814;6.590;2022-11-15T00:07:54;99599.00;;;12.63;100.00
20145;BME280;10233;50.814;6.590;2022-11-15T00:09:13;99600.38;;;12.66;100.00
20145;BME280;10233;50.814;6.590;2022-11-15T00:10:33;99594.81;;;12.67;100.00
20145;BME280;10233;50.814;6.590;2022-11-15T00:11:51;99601.19;;;12.66;100.00
20145;BME280;10233;50.814;6.590;2022-11-15T00:13:12;99601.91;;;12.73;100.00
20145;BME280;10233;50.814;6.590;2022-11-15T00:14:31;99587.63;;;12.79;100.00
20145;BME280;10233;50.814;6.590;2022-11-15T00:15:51;99585.41;;;12.76;100.00
20145;BME280;10233;50.814;6.590;2022-11-15T00:17:10;99591.91;;;12.80;100.00
20145;BME280;10233;50.814;6.590;2022-11-15T00:18:30;99588.06;;;12.76;100.00
20145;BME280;10233;50.814;6.590;2022-11-15T00:19:49;99599.22;;;12.85;100.00
20145;BME280;10233;50.814;6.590;2022-11-15T00:21:11;99592.97;;;12.79;100.00
20145;BME280;10233;50.814;6.590;2022-11-15T00:22:32;99597.13;;;12.75;100.00
20145;BME280;10233;50.814;6.590;2022-11-15T00:23:52;99605.13;;;12.75;100.00
20145;BME280;10233;50.814;6.590;2022-11-15T00:25:10;99604.78;;;12.72;100.00
20145;BME280;10233;50.814;6.590;2022-11-15T00:26:30;99603.97;;;12.71;100.00
20145;BME280;10233;50.814;6.590;2022-11-15T00:27:49;99595.97;;;12.71;100.00
20145;BME280;10233;50.814;6.590;2022-11-15T00:29:08;99595.28;;;12.76;100.00
20145;BME280;10233;50.814;6.590;2022-11-15T00:30:27;99596.91;;;12.77;100.00
20145;BME280;10233;50.814;6.590;2022-11-15T00:31:46;99593.63;;;12.75;100.00
20145;BME280;10233;50.814;6.590;2022-11-15T00:33:06;99589.34;;;12.74;100.00
20145;BME280;10233;50.814;6.590;2022-11-15T00:34:25;99601.66;;;12.63;100.00
20145;BME280;10233;50.814;6.590;2022-11-15T00:35:44;99593.06;;;12.61;100.00
20145;BME280;10233;50.814;6.590;2022-11-15T00:37:03;99596.19;;;12.58;100.00
20145;BME280;10233;50.814;6.590;2022-11-15T00:38:22;99591.34;;;12.67;100.00
20145;BME280;10233;50.814;6.590;2022-11-15T00:39:41;99594.47;;;12.75;100.00
20145;BME280;10233;50.814;6.590;2022-11-15T00:41:01;99587.41;;;12.69;100.00
20145;BME280;10233;50.814;6.590;2022-11-15T00:42:21;99585.06;;;12.73;100.00
20145;BME280;10233;50.814;6.590;2022-11-15T00:43:40;99587.50;;;12.63;100.00
20145;BME280;10233;50.814;6.590;2022-11-15T00:45:02;99594.00;;;12.55;100.00
20145;BME280;10233;50.814;6.590;2022-11-15T00:46:21;99587.81;;;12.43;100.00
20145;BME280;10233;50.814;6.590;2022-11-15T00:47:40;99593.50;;;12.35;100.00
20145;BME280;10233;50.814;6.590;2022-11-15T00:48:59;99593.25;;;12.25;100.00
20145;BME280;10233;50.814;6.590;2022-11-15T00:50:18;99590.00;;;12.23;100.00
20145;BME280;10233;50.814;6.590;2022-11-15T00:51:37;99585.97;;;12.32;100.00
20145;BME280;10233;50.814;6.590;2022-11-15T00:52:57;99583.25;;;12.21;100.00
20145;BME280;10233;50.814;6.590;2022-11-15T00:54:16;99583.75;;;12.18;100.00
20145;BME280;10233;50.814;6.590;2022-11-15T00:55:35;99593.19;;;12.02;100.00
20145;BME280;10233;50.814;6.590;2022-11-15T00:56:54;99589.34;;;11.98;100.00
20145;BME280;10233;50.814;6.590;2022-11-15T00:58:13;99586.56;;;11.93;100.00
20145;BME280;10233;50.814;6.590;2022-11-15T00:59:32;99591.22;;;11.98;100.00
20145;BME280;10233;50.814;6.590;2022-11-15T01:00:51;99588.00;;;12.07;100.00
20145;BME280;10233;50.814;6.590;2022-11-15T01:02:10;99586.13;;;11.96;100.00
20145;BME280;10233;50.814;6.590;2022-11-15T01:03:32;99581.84;;;11.95;100.00
20145;BME280;10233;50.814;6.590;2022-11-15T01:04:51;99589.22;;;11.93;100.00
20145;BME280;10233;50.814;6.590;2022-11-15T01:06:11;99587.47;;;11.87;100.00
20145;BME280;10233;50.814;6.590;2022-11-15T01:07:30;99583.97;;;11.87;100.00
20145;BME280;10233;50.814;6.590;2022-11-15T01:08:49;99592.38;;;12.02;100.00
20145;BME280;10233;50.814;6.590;2022-11-15T01:10:09;99584.06;;;12.10;100.00
20145;BME280;10233;50.814;6.590;2022-11-15T01:11:28;99580.81;;;12.19;100.00
20145;BME280;10233;50.814;6.590;2022-11-15T01:12:47;99587.53;;;12.10;100.00
20145;BME280;10233;50.814;6.590;2022-11-15T01:14:06;99578.63;;;12.16;100.00
20145;BME280;10233;50.814;6.590;2022-11-15T01:15:28;99581.19;;;12.23;100.00
20145;BME280;10233;50.814;6.590;2022-11-15T01:16:47;99585.84;;;12.27;100.00
20145;BME280;10233;50.814;6.590;2022-11-15T01:18:06;99583.66;;;12.24;100.00
20145;BME280;10233;50.814;6.590;2022-11-15T01:19:26;99575.16;;;12.27;100.00
20145;BME280;10233;50.814;6.590;2022-11-15T01:20:45;99574.00;;;12.23;100.00
20145;BME280;10233;50.814;6.590;2022-11-15T01:22:04;99580.16;;;12.24;100.00
20145;BME280;10233;50.814;6.590;2022-11-15T01:23:23;99582.59;;;12.25;100.00
20145;BME280;10233;50.814;6.590;2022-11-15T01:24:42;99580.38;;;12.22;100.00
20145;BME280;10233;50.814;6.590;2022-11-15T01:26:03;99574.94;;;12.17;100.00
20145;BME280;10233;50.814;6.590;2022-11-15T01:27:22;99568.91;;;12.10;100.00
20145;BME280;10233;50.814;6.590;2022-11-15T01:28:42;99571.78;;;12.09;100.00
20145;BME280;10233;50.814;6.590;2022-11-15T01:30:01;99576.63;;;12.12;100.00
20145;BME280;10233;50.814;6.590;2022-11-15T01:31:20;99570.16;;;12.08;100.00
20145;BME280;10233;50.814;6.590;2022-11-15T01:32:40;99565.50;;;12.03;100.00
20145;BME280;10233;50.814;6.590;2022-11-15T01:33:59;99567.94;;;12.05;100.00
20145;BME280;10233;50.814;6.590;2022-11-15T01:35:18;99564.44;;;12.04;100.00
20145;BME280;10233;50.814;6.590;2022-11-15T01:36:37;99570.25;;;12.01;100.00
20145;BME280;10233;50.814;6.590;2022-11-15T01:37:57;99562.50;;;12.00;100.00
20145;BME280;10233;50.814;6.590;2022-11-15T01:39:16;99562.84;;;12.03;100.00
20145;BME280;10233;50.814;6.590;2022-11-15T01:40:35;99564.94;;;12.01;100.00
20145;BME280;10233;50.814;6.590;2022-11-15T01:41:54;99557.06;;;12.06;100.00
20145;BME280;10233;50.814;6.590;2022-11-15T01:43:28;99549.78;;;12.13;100.00
20145;BME280;10233;50.814;6.590;2022-11-15T01:44:51;99553.16;;;12.20;100.00
20145;BME280;10233;50.814;6.590;2022-11-15T01:46:29;99548.06;;;12.19;100.00
20145;BME280;10233;50.814;6.590;2022-11-15T01:47:52;99549.91;;;12.18;100.00
20145;BME280;10233;50.814;6.590;2022-11-15T01:49:19;99550.59;;;12.14;100.00
20145;BME280;10233;50.814;6.590;2022-11-15T01:50:39;99548.97;;;12.13;100.00
20145;BME280;10233;50.814;6.590;2022-11-15T01:52:00;99547.94;;;12.14;100.00
20145;BME280;10233;50.814;6.590;2022-11-15T01:53:21;99544.66;;;12.12;100.00
20145;BME280;10233;50.814;6.590;2022-11-15T01:54:42;99544.66;;;12.12;100.00
20145;BME280;10233;50.814;6.590;2022-11-15T01:56:06;99541.44;;;12.10;100.00
20145;BME280;10233;50.814;6.590;2022-11-15T01:57:26;99541.66;;;12.08;100.00
20145;BME280;10233;50.814;6.590;2022-11-15T01:58:46;99538.06;;;12.14;100.00
20145;BME280;10233;50.814;6.590;2022-11-15T02:00:06;99539.22;;;12.18;100.00
20145;BME280;10233;50.814;6.590;2022-11-15T02:01:26;99535.66;;;12.13;100.00
20145;BME280;10233;50.814;6.590;2022-11-15T02:02:47;99529.38;;;12.07;100.00
20145;BME280;10233;50.814;6.590;2022-11-15T02:04:24;99533.75;;;12.02;100.00
20145;BME280;10233;50.814;6.590;2022-11-15T02:05:44;99525.91;;;11.95;100.00
20145;BME280;10233;50.814;6.590;2022-11-15T02:07:04;99528.31;;;11.85;100.00
20145;BME280;10233;50.814;6.590;2022-11-15T02:08:24;99524.50;;;11.93;100.00
20145;BME280;10233;50.814;6.590;2022-11-15T02:09:44;99530.16;;;11.96;100.00
20145;BME280;10233;50.814;6.590;2022-11-15T02:11:07;99520.56;;;11.95;100.00
20145;BME280;10233;50.814;6.590;2022-11-15T02:12:27;99519.03;;;11.99;100.00
20145;BME280;10233;50.814;6.590;2022-11-15T02:13:46;99520.09;;;11.98;100.00
20145;BME280;10233;50.814;6.590;2022-11-15T02:15:06;99525.63;;;11.97;100.00
20145;BME280;10233;50.814;6.590;2022-11-15T02:16:30;99527.38;;;11.91;100.00
20145;BME280;10233;50.814;6.590;2022-11-15T02:18:15;99529.44;;;11.89;100.00
20145;BME280;10233;50.814;6.590;2022-11-15T02:21:58;99516.38;;;11.88;100.00
20145;BME280;10233;50.814;6.590;2022-11-15T02:30:16;99521.81;;;11.81;100.00
20145;BME280;10233;50.814;6.590;2022-11-15T02:31:43;99535.13;;;11.81;100.00
20145;BME280;10233;50.814;6.590;2022-11-15T02:35:02;99527.13;;;11.81;100.00
20145;BME280;10233;50.814;6.590;2022-11-15T02:36:34;99532.44;;;11.81;100.00
20145;BME280;10233;50.814;6.590;2022-11-15T02:37:57;99527.69;;;11.83;100.00
20145;BME280;10233;50.814;6.590;2022-11-15T02:42:21;99525.03;;;11.83;100.00
20145;BME280;10233;50.814;6.590;2022-11-15T02:44:17;99520.53;;;11.84;100.00
20145;BME280;10233;50.814;6.590;2022-11-15T02:45:46;99522.59;;;11.82;100.00
20145;BME280;10233;50.814;6.590;2022-11-15T02:47:11;99513.94;;;11.86;100.00
20145;BME280;10233;50.814;6.590;2022-11-15T02:48:35;99510.53;;;11.79;100.00
20145;BME280;10233;50.814;6.590;2022-11-15T02:49:59;99512.84;;;11.76;100.00
20145;BME280;10233;50.814;6.590;2022-11-15T02:51:20;99503.81;;;11.77;100.00
20145;BME280;10233;50.814;6.590;2022-11-15T02:52:40;99503.81;;;11.77;100.00
20145;BME280;10233;50.814;6.590;2022-11-15T02:53:59;99499.09;;;11.79;100.00
20145;BME280;10233;50.814;6.590;2022-11-15T02:56:53;99496.19;;;11.80;100.00
20145;BME280;10233;50.814;6.590;2022-11-15T03:00:28;99498.31;;;11.90;100.00
20145;BME280;10233;50.814;6.590;2022-11-15T03:03:55;99503.41;;;11.91;100.00
20145;BME280;10233;50.814;6.590;2022-11-15T03:05:34;99503.19;;;11.93;100.00
20145;BME280;10233;50.814;6.590;2022-11-15T03:07:18;99505.03;;;11.92;100.00
20145;BME280;10233;50.814;6.590;2022-11-15T03:08:53;99502.63;;;12.02;100.00
20145;BME280;10233;50.814;6.590;2022-11-15T03:11:41;99503.53;;;11.96;100.00
20145;BME280;10233;50.814;6.590;2022-11-15T03:13:26;99499.94;;;12.02;100.00
20145;BME280;10233;50.814;6.590;2022-11-15T03:17:55;99496.97;;;12.22;100.00
20145;BME280;10233;50.814;6.590;2022-11-15T03:21:05;99487.94;;;12.23;100.00
20145;BME280;10233;50.814;6.590;2022-11-15T03:22:27;99489.78;;;12.22;100.00
20145;BME280;10233;50.814;6.590;2022-11-15T03:23:48;99490.94;;;12.26;100.00
20145;BME280;10233;50.814;6.590;2022-11-15T03:25:12;99491.38;;;12.35;100.00
20145;BME280;10233;50.814;6.590;2022-11-15T03:26:35;99483.16;;;12.36;100.00
20145;BME280;10233;50.814;6.590;2022-11-15T03:27:58;99492.00;;;12.37;100.00
20145;BME280;10233;50.814;6.590;2022-11-15T03:29:26;99499.63;;;12.22;100.00
20145;BME280;10233;50.814;6.590;2022-11-15T03:30:47;99498.38;;;12.24;100.00
20145;BME280;10233;50.814;6.590;2022-11-15T03:32:13;99497.66;;;12.17;100.00
20145;BME280;10233;50.814;6.590;2022-11-15T03:33:34;99501.25;;;12.11;100.00
20145;BME280;10233;50.814;6.590;2022-11-15T03:35:01;99503.56;;;12.08;100.00
20145;BME280;10233;50.814;6.590;2022-11-15T03:36:23;99498.56;;;12.11;100.00
20145;BME280;10233;50.814;6.590;2022-11-15T03:39:08;99492.66;;;12.32;100.00
20145;BME280;10233;50.814;6.590;2022-11-15T03:40:33;99496.97;;;12.22;100.00
20145;BME280;10233;50.814;6.590;2022-11-15T03:42:28;99487.81;;;12.29;100.00
20145;BME280;10233;50.814;6.590;2022-11-15T03:45:49;99484.66;;;12.21;100.00
20145;BME280;10233;50.814;6.590;2022-11-15T03:48:39;99488.03;;;12.16;100.00
20145;BME280;10233;50.814;6.590;2022-11-15T03:50:08;99486.28;;;12.10;100.00
20145;BME280;10233;50.814;6.590;2022-11-15T03:51:29;99484.91;;;12.08;100.00
20145;BME280;10233;50.814;6.590;2022-11-15T03:52:49;99480.59;;;12.18;100.00
20145;BME280;10233;50.814;6.590;2022-11-15T03:54:08;99473.31;;;12.14;100.00
20145;BME280;10233;50.814;6.590;2022-11-15T03:55:28;99473.53;;;12.12;100.00
20145;BME280;10233;50.814;6.590;2022-11-15T03:56:50;99472.50;;;12.13;100.00
20145;BME280;10233;50.814;6.590;2022-11-15T03:58:09;99472.50;;;12.13;100.00
20145;BME280;10233;50.814;6.590;2022-11-15T03:59:28;99472.97;;;12.10;100.00
20145;BME280;10233;50.814;6.590;2022-11-15T04:00:47;99467.66;;;12.10;100.00
20145;BME280;10233;50.814;6.590;2022-11-15T04:02:06;99478.75;;;12.07;100.00
20145;BME280;10233;50.814;6.590;2022-11-15T04:03:25;99471.09;;;11.99;100.00
20145;BME280;10233;50.814;6.590;2022-11-15T04:04:44;99467.03;;;11.97;100.00
20145;BME280;10233;50.814;6.590;2022-11-15T04:06:03;99464.16;;;11.98;100.00
20145;BME280;10233;50.814;6.590;2022-11-15T04:07:23;99464.25;;;11.92;100.00
20145;BME280;10233;50.814;6.590;2022-11-15T04:08:42;99462.31;;;11.99;100.00
20145;BME280;10233;50.814;6.590;2022-11-15T04:10:01;99469.00;;;11.90;100.00
20145;BME280;10233;50.814;6.590;2022-11-15T04:11:22;99460.78;;;11.80;100.00
20145;BME280;10233;50.814;6.590;2022-11-15T04:12:44;99468.16;;;11.78;100.00
20145;BME280;10233;50.814;6.590;2022-11-15T04:14:05;99467.69;;;11.69;100.00
20145;BME280;10233;50.814;6.590;2022-11-15T04:15:24;99475.53;;;11.64;100.00
20145;BME280;10233;50.814;6.590;2022-11-15T04:16:43;99477.63;;;11.62;100.00
20145;BME280;10233;50.814;6.590;2022-11-15T04:18:05;99476.16;;;11.66;100.00
20145;BME280;10233;50.814;6.590;2022-11-15T04:19:24;99477.16;;;11.65;100.00
20145;BME280;10233;50.814;6.590;2022-11-15T04:21:02;99470.56;;;11.68;100.00
20145;BME280;10233;50.814;6.590;2022-11-15T04:22:40;99473.63;;;11.71;100.00
20145;BME280;10233;50.814;6.590;2022-11-15T04:24:17;99488.75;;;11.71;100.00
20145;BME280;10233;50.814;6.590;2022-11-15T04:25:37;99481.34;;;11.73;100.00
20145;BME280;10233;50.814;6.590;2022-11-15T04:26:56;99481.84;;;11.81;100.00
20145;BME280;10233;50.814;6.590;2022-11-15T04:28:15;99481.84;;;11.81;100.00
20145;BME280;10233;50.814;6.590;2022-11-15T04:29:35;99481.63;;;11.83;100.00
20145;BME280;10233;50.814;6.590;2022-11-15T04:30:54;99489.38;;;11.84;100.00
20145;BME280;10233;50.814;6.590;2022-11-15T04:32:13;99477.91;;;11.84;100.00
20145;BME280;10233;50.814;6.590;2022-11-15T04:33:35;99477.91;;;11.84;100.00
20145;BME280;10233;50.814;6.590;2022-11-15T04:34:54;99490.31;;;11.90;100.00
20145;BME280;10233;50.814;6.590;2022-11-15T04:36:13;99486.47;;;11.86;100.00
20145;BME280;10233;50.814;6.590;2022-11-15T04:37:51;99486.97;;;11.83;100.00
20145;BME280;10233;50.814;6.590;2022-11-15T04:39:11;99494.50;;;11.97;100.00
20145;BME280;10233;50.814;6.590;2022-11-15T04:40:30;99496.47;;;11.90;100.00
20145;BME280;10233;50.814;6.590;2022-11-15T04:41:49;99492.75;;;11.91;100.00
20145;BME280;10233;50.814;6.590;2022-11-15T04:43:08;99487.31;;;11.86;100.00
20145;BME280;10233;50.814;6.590;2022-11-15T04:44:28;99483.94;;;11.91;100.00
20145;BME280;10233;50.814;6.590;2022-11-15T04:45:46;99483.69;;;11.81;100.00
20145;BME280;10233;50.814;6.590;2022-11-15T04:47:06;99483.69;;;11.81;100.00
20145;BME280;10233;50.814;6.590;2022-11-15T04:48:25;99485.41;;;11.75;100.00
20145;BME280;10233;50.814;6.590;2022-11-15T04:49:43;99484.72;;;11.68;100.00
20145;BME280;10233;50.814;6.590;2022-11-15T04:51:03;99490.13;;;11.62;100.00
20145;BME280;10233;50.814;6.590;2022-11-15T04:52:21;99492.34;;;11.47;100.00
20145;BME280;10233;50.814;6.590;2022-11-15T04:53:40;99486.06;;;11.41;100.00
20145;BME280;10233;50.814;6.590;2022-11-15T04:54:59;99489.88;;;11.34;100.00
20145;BME280;10233;50.814;6.590;2022-11-15T04:56:18;99487.75;;;11.24;100.00
20145;BME280;10233;50.814;6.590;2022-11-15T04:57:38;99487.06;;;11.17;100.00
20145;BME280;10233;50.814;6.590;2022-11-15T04:58:57;99484.69;;;11.09;100.00
20145;BME280;10233;50.814;6.590;2022-11-15T05:00:16;99494.50;;;11.09;100.00
20145;BME280;10233;50.814;6.590;2022-11-15T05:01:35;99488.47;;;11.02;100.00
20145;BME280;10233;50.814;6.590;2022-11-15T05:02:55;99493.44;;;10.98;100.00
20145;BME280;10233;50.814;6.590;2022-11-15T05:04:33;99494.75;;;10.89;100.00
20145;BME280;10233;50.814;6.590;2022-11-15T05:05:53;99501.03;;;10.77;100.00
20145;BME280;10233;50.814;6.590;2022-11-15T05:07:11;99498.22;;;10.72;100.00
20145;BME280;10233;50.814;6.590;2022-11-15T05:08:30;99504.88;;;10.81;100.00
20145;BME280;10233;50.814;6.590;2022-11-15T05:09:49;99492.84;;;10.78;100.00
20145;BME280;10233;50.814;6.590;2022-11-15T05:11:08;99499.41;;;10.76;100.00
20145;BME280;10233;50.814;6.590;2022-11-15T05:12:27;99496.75;;;10.76;100.00
20145;BME280;10233;50.814;6.590;2022-11-15T05:13:47;99496.22;;;10.67;100.00
20145;BME280;10233;50.814;6.590;2022-11-15T05:15:06;99504.44;;;10.66;100.00
20145;BME280;10233;50.814;6.590;2022-11-15T05:16:28;99497.41;;;10.71;100.00
20145;BME280;10233;50.814;6.590;2022-11-15T05:17:47;99498.09;;;10.67;100.00
20145;BME280;10233;50.814;6.590;2022-11-15T05:19:07;99500.81;;;10.60;100.00
20145;BME280;10233;50.814;6.590;2022-11-15T05:20:26;99497.63;;;10.52;100.00
20145;BME280;10233;50.814;6.590;2022-11-15T05:21:45;99495.63;;;10.47;100.00
20145;BME280;10233;50.814;6.590;2022-11-15T05:23:04;99498.34;;;10.41;100.00
20145;BME280;10233;50.814;6.590;2022-11-15T05:24:23;99498.56;;;10.39;100.00
20145;BME280;10233;50.814;6.590;2022-11-15T05:25:42;99500.09;;;10.29;100.00
20145;BME280;10233;50.814;6.590;2022-11-15T05:27:01;99501.56;;;10.25;100.00
20145;BME280;10233;50.814;6.590;2022-11-15T05:28:19;99500.38;;;10.21;100.00
20145;BME280;10233;50.814;6.590;2022-11-15T05:29:39;99495.94;;;10.15;100.00
20145;BME280;10233;50.814;6.590;2022-11-15T05:31:02;99499.47;;;10.09;100.00
20145;BME280;10233;50.814;6.590;2022-11-15T05:32:21;99501.50;;;10.07;100.00
20145;BME280;10233;50.814;6.590;2022-11-15T05:33:41;99498.63;;;10.08;100.00
20145;BME280;10233;50.814;6.590;2022-11-15T05:35:02;99497.03;;;10.01;100.00
20145;BME280;10233;50.814;6.590;2022-11-15T05:36:31;99495.59;;;10.05;100.00
20145;BME280;10233;50.814;6.590;2022-11-15T05:37:52;99492.38;;;9.96;100.00
20145;BME280;10233;50.814;6.590;2022-11-15T05:39:11;99505.72;;;9.90;100.00
20145;BME280;10233;50.814;6.590;2022-11-15T05:40:31;99502.22;;;9.89;100.00
20145;BME280;10233;50.814;6.590;2022-11-15T05:41:54;99501.91;;;9.79;100.00
20145;BME280;10233;50.814;6.590;2022-11-15T05:43:15;99502.00;;;9.66;100.00
20145;BME280;10233;50.814;6.590;2022-11-15T05:44:36;99499.97;;;9.62;100.00
20145;BME280;10233;50.814;6.590;2022-11-15T05:45:57;99505.50;;;9.60;100.00
20145;BME280;10233;50.814;6.590;2022-11-15T05:47:20;99500.28;;;9.47;100.00
20145;BME280;10233;50.814;6.590;2022-11-15T05:48:46;99500.13;;;9.42;100.00
20145;BME280;10233;50.814;6.590;2022-11-15T05:50:07;99500.94;;;9.36;100.00
20145;BME280;10233;50.814;6.590;2022-11-15T05:51:30;99488.91;;;9.34;100.00
20145;BME280;10233;50.814;6.590;2022-11-15T05:52:49;99489.16;;;9.32;100.00
20145;BME280;10233;50.814;6.590;2022-11-15T05:54:10;99492.81;;;9.31;100.00
20145;BME280;10233;50.814;6.590;2022-11-15T05:55:29;99484.69;;;9.26;100.00
20145;BME280;10233;50.814;6.590;2022-11-15T05:56:48;99487.56;;;9.25;100.00
20145;BME280;10233;50.814;6.590;2022-11-15T05:58:08;99488.34;;;9.25;100.00
20145;BME280;10233;50.814;6.590;2022-11-15T05:59:31;99487.13;;;9.28;100.00
20145;BME280;10233;50.814;6.590;2022-11-15T06:00:50;99491.97;;;9.37;100.00
20145;BME280;10233;50.814;6.590;2022-11-15T06:02:10;99490.34;;;9.36;100.00
20145;BME280;10233;50.814;6.590;2022-11-15T06:03:29;99490.13;;;9.38;100.00
20145;BME280;10233;50.814;6.590;2022-11-15T06:04:48;99490.94;;;9.38;100.00
20145;BME280;10233;50.814;6.590;2022-11-15T06:06:08;99492.81;;;9.31;100.00
20145;BME280;10233;50.814;6.590;2022-11-15T06:07:29;99487.31;;;9.26;100.00
20145;BME280;10233;50.814;6.590;2022-11-15T06:08:48;99491.09;;;9.12;100.00
20145;BME280;10233;50.814;6.590;2022-11-15T06:10:08;99491.31;;;9.04;100.00
20145;BME280;10233;50.814;6.590;2022-11-15T06:11:27;99484.00;;;9.00;100.00
20145;BME280;10233;50.814;6.590;2022-11-15T06:12:46;99496.66;;;8.98;100.00
20145;BME280;10233;50.814;6.590;2022-11-15T06:14:05;99496.44;;;8.99;100.00
20145;BME280;10233;50.814;6.590;2022-11-15T06:15:24;99497.69;;;8.97;100.00
20145;BME280;10233;50.814;6.590;2022-11-15T06:16:44;99497.88;;;9.02;100.00
20145;BME280;10233;50.814;6.590;2022-11-15T06:18:03;99494.38;;;9.01;100.00
20145;BME280;10233;50.814;6.590;2022-11-15T06:19:22;99497.84;;;9.08;100.00
20145;BME280;10233;50.814;6.590;2022-11-15T06:20:41;99493.75;;;9.12;100.00
20145;BME280;10233;50.814;6.590;2022-11-15T06:22:00;99504.66;;;9.29;100.00
20145;BME280;10233;50.814;6.590;2022-11-15T06:23:19;99506.66;;;9.40;100.00
20145;BME280;10233;50.814;6.590;2022-11-15T06:24:38;99511.88;;;9.53;100.00
20145;BME280;10233;50.814;6.590;2022-11-15T06:25:58;99499.44;;;9.53;100.00
20145;BME280;10233;50.814;6.590;2022-11-15T06:27:17;99506.97;;;9.56;100.00
20145;BME280;10233;50.814;6.590;2022-11-15T06:28:37;99512.31;;;9.50;100.00
20145;BME280;10233;50.814;6.590;2022-11-15T06:29:56;99506.38;;;9.48;100.00
20145;BME280;10233;50.814;6.590;2022-11-15T06:31:14;99513.56;;;9.47;100.00
20145;BME280;10233;50.814;6.590;2022-11-15T06:32:34;99508.47;;;9.39;100.00
20145;BME280;10233;50.814;6.590;2022-11-15T06:33:53;99507.47;;;9.34;100.00
20145;BME280;10233;50.814;6.590;2022-11-15T06:35:12;99511.16;;;9.33;100.00
20145;BME280;10233;50.814;6.590;2022-11-15T06:36:34;99516.28;;;9.28;100.00
20145;BME280;10233;50.814;6.590;2022-11-15T06:37:53;99522.44;;;9.22;100.00
20145;BME280;10233;50.814;6.590;2022-11-15T06:39:12;99521.44;;;9.16;100.00
20145;BME280;10233;50.814;6.590;2022-11-15T06:40:36;99519.84;;;9.09;100.00
20145;BME280;10233;50.814;6.590;2022-11-15T06:41:55;99529.00;;;9.13;100.00
20145;BME280;10233;50.814;6.590;2022-11-15T06:43:14;99534.59;;;8.98;100.00
20145;BME280;10233;50.814;6.590;2022-11-15T06:44:33;99530.06;;;9.05;100.00
20145;BME280;10233;50.814;6.590;2022-11-15T06:45:52;99529.69;;;9.02;100.00
20145;BME280;10233;50.814;6.590;2022-11-15T06:47:12;99528.88;;;8.95;100.00
20145;BME280;10233;50.814;6.590;2022-11-15T06:48:35;99530.16;;;8.86;100.00
20145;BME280;10233;50.814;6.590;2022-11-15T06:49:54;99536.25;;;8.80;100.00
20145;BME280;10233;50.814;6.590;2022-11-15T06:51:13;99538.50;;;8.83;100.00
20145;BME280;10233;50.814;6.590;2022-11-15T06:52:33;99541.72;;;8.91;100.00
20145;BME280;10233;50.814;6.590;2022-11-15T06:53:52;99543.22;;;8.81;100.00
20145;BME280;10233;50.814;6.590;2022-11-15T06:55:11;99544.25;;;8.73;100.00
20145;BME280;10233;50.814;6.590;2022-11-15T06:56:30;99552.19;;;8.73;100.00
20145;BME280;10233;50.814;6.590;2022-11-15T06:57:50;99541.41;;;8.68;100.00
20145;BME280;10233;50.814;6.590;2022-11-15T06:59:10;99547.72;;;8.61;100.00
20145;BME280;10233;50.814;6.590;2022-11-15T07:00:29;99547.75;;;8.54;100.00
20145;BME280;10233;50.814;6.590;2022-11-15T07:01:49;99557.13;;;8.50;100.00
20145;BME280;10233;50.814;6.590;2022-11-15T07:03:08;99548.13;;;8.58;100.00
20145;BME280;10233;50.814;6.590;2022-11-15T07:04:27;99548.94;;;8.58;100.00
20145;BME280;10233;50.814;6.590;2022-11-15T07:05:53;99547.50;;;8.62;100.00
20145;BME280;10233;50.814;6.590;2022-11-15T07:07:13;99547.69;;;8.67;100.00
20145;BME280;10233;50.814;6.590;2022-11-15T07:08:33;99542.81;;;8.71;100.00
20145;BME280;10233;50.814;6.590;2022-11-15T07:09:52;99548.72;;;8.79;100.00
20145;BME280;10233;50.814;6.590;2022-11-15T07:11:15;99548.28;;;8.82;100.00
20145;BME280;10233;50.814;6.590;2022-11-15T07:12:34;99556.78;;;8.97;100.00
20145;BME280;10233;50.814;6.590;2022-11-15T07:13:53;99558.41;;;9.05;100.00
20145;BME280;10233;50.814;6.590;2022-11-15T07:15:12;99547.97;;;9.16;100.00
20145;BME280;10233;50.814;6.590;2022-11-15T07:16:31;99561.41;;;9.21;100.00
20145;BME280;10233;50.814;6.590;2022-11-15T07:17:50;99561.94;;;9.36;100.00
20145;BME280;10233;50.814;6.590;2022-11-15T07:19:09;99557.63;;;9.48;100.00
20145;BME280;10233;50.814;6.590;2022-11-15T07:20:28;99559.78;;;9.58;100.00
20145;BME280;10233;50.814;6.590;2022-11-15T07:21:47;99553.00;;;9.68;100.00
20145;BME280;10233;50.814;6.590;2022-11-15T07:23:06;99558.47;;;9.80;100.00
20145;BME280;10233;50.814;6.590;2022-11-15T07:24:25;99556.84;;;9.79;100.00
20145;BME280;10233;50.814;6.590;2022-11-15T07:25:44;99562.13;;;9.85;100.00
20145;BME280;10233;50.814;6.590;2022-11-15T07:27:02;99564.81;;;10.03;100.00
20145;BME280;10233;50.814;6.590;2022-11-15T07:28:22;99568.66;;;10.14;100.00
20145;BME280;10233;50.814;6.590;2022-11-15T07:29:41;99570.94;;;10.10;100.00
20145;BME280;10233;50.814;6.590;2022-11-15T07:31:06;99567.97;;;10.25;100.00
20145;BME280;10233;50.814;6.590;2022-11-15T07:32:25;99569.00;;;10.24;100.00
20145;BME280;10233;50.814;6.590;2022-11-15T07:33:44;99567.88;;;10.38;100.00
20145;BME280;10233;50.814;6.590;2022-11-15T07:35:04;99572.09;;;10.45;100.00
20145;BME280;10233;50.814;6.590;2022-11-15T07:36:23;99566.56;;;10.47;100.00
20145;BME280;10233;50.814;6.590;2022-11-15T07:37:42;99572.63;;;10.54;100.00